Time;durP1;ratioP1;P1;durP2;ratioP2;P2;SDS_P1;SDS_P2;PMS_P1;PMS_P2;Temp;Humidity;BMP_temperature;BMP_pressure;BME280_temperature;BME280_humidity;BME280_pressure;Samples;Min_cycle;Max_cycle;Signal;HPM_P1;HPM_P2
2021/10/20 03:18:43;;;;;;;;;;;;;;;7.54;100.00;99512.91;4981940;28;19961;-79
2021/10/20 03:21:08;;;;;;;;;;;;;;;7.56;100.00;99511.94;4975752;28;20389;-79
2021/10/20 03:23:34;;;;;;;;;;;;;;;7.56;100.00;99511.06;4979142;28;19922;-80
2021/10/20 03:25:59;;;;;;;;;;;;;;;7.59;100.00;99506.53;4979056;28;19918;-81
2021/10/20 03:28:24;;;;;;;;;;;;;;;7.62;100.00;99505.59;4980034;28;19932;-81
2021/10/20 03:30:50;;;;;;;;;;;;;;;7.64;100.00;99499.34;4984781;28;19926;-82
2021/10/20 03:33:15;;;;;;;;;;;;;;;7.62;100.00;99495.88;4984058;28;19965;-81
2021/10/20 03:35:40;;;;;;;;;;;;;;;7.67;100.00;99492.25;4984755;28;19918;-81
2021/10/20 03:38:09;;;;;;;;;;;;;;;7.69;100.00;99493.91;4984510;28;19922;-80
2021/10/20 03:40:35;;;;;;;;;;;;;;;7.72;100.00;99500.84;4983571;28;19914;-80
2021/10/20 03:43:00;;;;;;;;;;;;;;;7.71;100.00;99509.69;4984472;28;19922;-80
2021/10/20 03:45:25;;;;;;;;;;;;;;;7.75;100.00;99514.78;4984992;28;19922;-79
2021/10/20 03:47:51;;;;;;;;;;;;;;;7.76;100.00;99516.50;4983519;28;19921;-80
2021/10/20 03:50:16;;;;;;;;;;;;;;;7.79;100.00;99512.91;4984250;28;19957;-79
2021/10/20 03:52:41;;;;;;;;;;;;;;;6.73;100.00;99514.66;4984421;28;20388;-81
2021/10/20 03:55:07;;;;;;;;;;;;;;;5.35;100.00;99517.69;4984721;28;19928;-79
2021/10/20 03:57:33;;;;;;;;;;;;;;;4.86;100.00;99511.88;4984222;28;19965;-80
2021/10/20 03:59:59;;;;;;;;;;;;;;;4.84;100.00;99518.94;4984083;28;20373;-81
2021/10/20 04:02:24;;;;;;;;;;;;;;;4.63;100.00;99522.06;4983238;28;20016;-81
2021/10/20 04:04:49;;;;;;;;;;;;;;;4.53;100.00;99524.91;4984322;28;20460;-81
2021/10/20 04:07:14;;;;;;;;;;;;;;;4.80;100.00;99524.28;4984090;28;19918;-79
2021/10/20 04:09:40;;;;;;;;;;;;;;;4.76;100.00;99517.41;4984013;28;19918;-79
2021/10/20 04:12:06;;;;;;;;;;;;;;;4.54;100.00;99523.97;4984530;28;20012;-79
2021/10/20 04:14:31;;;;;;;;;;;;;;;4.31;100.00;99523.66;4983162;28;20052;-80
2021/10/20 04:16:56;;;;;;;;;;;;;;;4.27;100.00;99517.59;4982445;28;19922;-80
2021/10/20 04:19:22;;;;;;;;;;;;;;;4.13;100.00;99515.28;4975416;28;19926;-80
2021/10/20 04:21:47;;;;;;;;;;;;;;;4.02;100.00;99517.25;4974329;28;20313;-80
2021/10/20 04:24:12;;;;;;;;;;;;;;;3.85;100.00;99524.59;4974241;28;19928;-80
2021/10/20 04:26:37;;;;;;;;;;;;;;;3.76;100.00;99505.50;4974196;28;19926;-79
2021/10/20 04:29:03;;;;;;;;;;;;;;;3.71;100.00;99506.50;4974115;28;19925;-79
2021/10/20 04:31:28;;;;;;;;;;;;;;;3.70;100.00;99508.28;4971943;28;19926;-80
2021/10/20 04:33:53;;;;;;;;;;;;;;;3.58;100.00;99498.88;4956545;28;19925;-79
2021/10/20 04:36:18;;;;;;;;;;;;;;;3.52;100.00;99495.50;4974063;28;19918;-80
2021/10/20 04:38:44;;;;;;;;;;;;;;;3.40;100.00;99494.84;4973818;28;19918;-80
2021/10/20 04:41:09;;;;;;;;;;;;;;;3.45;100.00;99489.53;4973867;28;20390;-80
2021/10/20 04:43:35;;;;;;;;;;;;;;;3.35;100.00;99483.59;4973797;28;19919;-80
2021/10/20 04:46:01;;;;;;;;;;;;;;;3.29;100.00;99478.47;4973845;28;19969;-79
2021/10/20 04:48:26;;;;;;;;;;;;;;;3.22;100.00;99461.13;4955204;28;19985;-81
2021/10/20 07:57:21;;;;;;;;;;;;;;;1.30;90.91;99319.38;5003119;28;19972;-79
2021/10/20 07:59:49;;;;;;;;;;;;;;;1.39;91.26;99314.03;5001341;28;19957;-79
2021/10/20 08:02:14;;;;;;;;;;;;;;;1.36;91.36;99308.84;5002975;28;19921;-80
2021/10/20 08:04:40;;;;;;;;;;;;;;;1.44;90.78;99303.53;5002341;28;19929;-79
2021/10/20 08:07:05;;;;;;;;;;;;;;;1.41;90.78;99298.34;5002323;28;19925;-79
2021/10/20 08:09:31;;;;;;;;;;;;;;;1.48;92.72;99302.59;5002417;28;19922;-79
2021/10/20 08:11:56;;;;;;;;;;;;;;;1.73;93.90;99304.88;5002787;28;19925;-79
2021/10/20 08:14:21;;;;;;;;;;;;;;;1.75;95.43;99303.94;5003407;28;19917;-79
2021/10/20 08:16:46;;;;;;;;;;;;;;;1.97;96.87;99317.56;5002165;28;19922;-79
2021/10/20 08:19:12;;;;;;;;;;;;;;;2.18;97.89;99291.97;5003427;28;19914;-79
2021/10/20 08:21:37;;;;;;;;;;;;;;;2.34;99.08;99289.97;5002762;28;20056;-79
2021/10/20 08:24:02;;;;;;;;;;;;;;;2.32;100.00;99283.91;5000047;28;20020;-80
2021/10/20 08:26:27;;;;;;;;;;;;;;;2.50;100.00;99287.94;5002290;28;19929;-80
2021/10/20 08:28:53;;;;;;;;;;;;;;;2.69;100.00;99285.84;5002938;28;19921;-80
2021/10/20 08:31:18;;;;;;;;;;;;;;;2.76;100.00;99287.47;5003395;28;20353;-78
2021/10/20 08:33:43;;;;;;;;;;;;;;;2.85;100.00;99286.44;5003127;28;19921;-80
2021/10/20 08:36:09;;;;;;;;;;;;;;;2.96;100.00;99283.59;5001992;28;19929;-80
2021/10/20 08:38:34;;;;;;;;;;;;;;;3.01;100.00;99274.75;5000951;28;19921;-79
2021/10/20 08:41:00;;;;;;;;;;;;;;;3.10;100.00;99276.34;5001214;28;19922;-81
2021/10/20 08:43:27;;;;;;;;;;;;;;;3.13;100.00;99271.03;5002072;28;20206;-80
2021/10/20 08:45:53;;;;;;;;;;;;;;;3.19;100.00;99254.31;5003368;28;20435;-81
2021/10/20 08:48:19;;;;;;;;;;;;;;;3.24;100.00;99257.72;5002823;28;19922;-79
2021/10/20 08:50:48;;;;;;;;;;;;;;;3.29;100.00;99253.25;5002475;28;19968;-81
2021/10/20 08:53:14;;;;;;;;;;;;;;;3.34;100.00;99254.00;5002115;28;19921;-79
2021/10/20 08:55:39;;;;;;;;;;;;;;;3.40;100.00;99258.25;5001364;28;20394;-79
2021/10/20 08:58:04;;;;;;;;;;;;;;;3.44;100.00;99258.13;5002667;28;19921;-79
2021/10/20 09:00:29;;;;;;;;;;;;;;;3.51;100.00;99247.53;5002580;28;19921;-79
2021/10/20 09:02:55;;;;;;;;;;;;;;;3.55;100.00;99254.44;5002481;28;20285;-79
2021/10/20 09:05:22;;;;;;;;;;;;;;;3.57;100.00;99242.13;4999890;28;19926;-80
2021/10/20 09:07:48;;;;;;;;;;;;;;;3.61;100.00;99249.91;5003043;28;19968;-81
2021/10/20 09:10:14;;;;;;;;;;;;;;;3.69;100.00;99244.50;4999258;28;19968;-81
2021/10/20 09:12:42;;;;;;;;;;;;;;;3.72;100.00;99241.81;5001958;28;20376;-81
2021/10/20 09:15:09;;;;;;;;;;;;;;;3.75;100.00;99238.22;5000927;28;20016;-79
2021/10/20 09:17:47;;;;;;;;;;;;;;;3.81;100.00;99224.97;5002781;28;19926;-80
2021/10/20 09:20:24;;;;;;;;;;;;;;;3.83;100.00;99228.44;5001996;28;19953;-82
2021/10/20 09:22:56;;;;;;;;;;;;;;;3.89;100.00;99228.28;5008467;28;20407;-80
2021/10/20 09:25:21;;;;;;;;;;;;;;;3.92;100.00;99222.94;5000839;28;19918;-81
2021/10/20 09:27:46;;;;;;;;;;;;;;;3.97;100.00;99235.94;5002433;28;19964;-80
2021/10/20 09:30:13;;;;;;;;;;;;;;;3.97;100.00;99226.34;5001823;28;20361;-80
2021/10/20 09:32:39;;;;;;;;;;;;;;;4.06;100.00;99240.97;5001625;28;19921;-80
2021/10/20 09:35:04;;;;;;;;;;;;;;;4.11;100.00;99240.84;5002585;28;19949;-80
2021/10/20 09:37:30;;;;;;;;;;;;;;;4.14;100.00;99222.44;5001741;28;19933;-80
2021/10/20 09:40:05;;;;;;;;;;;;;;;4.22;100.00;99219.63;5000350;28;19921;-79
2021/10/20 09:42:41;;;;;;;;;;;;;;;4.19;100.00;99216.16;5001508;28;20381;-80
2021/10/20 09:45:07;;;;;;;;;;;;;;;4.24;100.00;99216.03;5002027;28;19965;-80
2021/10/20 09:47:32;;;;;;;;;;;;;;;4.25;100.00;99204.66;5001844;28;19975;-80
2021/10/20 09:49:58;;;;;;;;;;;;;;;4.29;100.00;99197.56;5001658;28;19969;-79
2021/10/20 09:52:24;;;;;;;;;;;;;;;4.31;100.00;99185.28;5024353;28;19922;-79
2021/10/20 09:54:49;;;;;;;;;;;;;;;4.34;100.00;99187.78;5001043;28;19926;-80
2021/10/20 09:57:15;;;;;;;;;;;;;;;4.36;100.00;99176.38;5002259;28;20371;-80
2021/10/20 09:59:41;;;;;;;;;;;;;;;4.39;100.00;99185.94;5002109;28;19918;-81
2021/10/20 10:02:08;;;;;;;;;;;;;;;4.44;100.00;99175.31;5001389;28;20012;-80
2021/10/20 10:04:35;;;;;;;;;;;;;;;4.46;100.00;99179.59;5001959;28;20257;-81
2021/10/20 10:07:03;;;;;;;;;;;;;;;4.47;100.00;99172.59;5000079;28;20008;-80
2021/10/20 10:09:28;;;;;;;;;;;;;;;4.45;100.00;99177.91;5000159;28;19995;-80
2021/10/20 10:12:02;;;;;;;;;;;;;;;4.44;100.00;99170.06;5004704;28;20381;-80
2021/10/20 10:14:30;;;;;;;;;;;;;;;4.47;100.00;99170.84;5005500;28;19993;-80
2021/10/20 10:17:00;;;;;;;;;;;;;;;4.47;100.00;99175.22;5005123;28;19949;-80
2021/10/20 10:19:26;;;;;;;;;;;;;;;4.52;100.00;99175.97;5006082;28;19987;-80
2021/10/20 10:21:52;;;;;;;;;;;;;;;4.52;100.00;99187.31;5005911;28;19989;-82
2021/10/20 10:24:18;;;;;;;;;;;;;;;4.57;100.00;99176.69;5003174;28;20121;-80
2021/10/20 10:27:00;;;;;;;;;;;;;;;4.60;100.00;99175.75;5005396;28;19975;-79
2021/10/20 10:29:26;;;;;;;;;;;;;;;4.60;100.00;99162.63;5003943;28;19987;-81
2021/10/20 10:31:51;;;;;;;;;;;;;;;4.63;100.00;99168.63;5028435;28;20284;-80
2021/10/20 10:34:30;;;;;;;;;;;;;;;4.62;100.00;99171.31;5005038;28;19932;-80
2021/10/20 10:36:58;;;;;;;;;;;;;;;4.66;100.00;99157.19;5005438;28;19921;-80
2021/10/20 10:39:23;;;;;;;;;;;;;;;4.69;100.00;99149.22;5003255;28;19929;-80
2021/10/20 10:41:49;;;;;;;;;;;;;;;4.70;100.00;99159.66;5004530;28;19925;-80
2021/10/20 10:44:15;;;;;;;;;;;;;;;4.75;100.00;99150.81;5004415;28;19922;-80
2021/10/20 10:46:47;;;;;;;;;;;;;;;4.76;100.00;99158.66;5003698;28;20012;-79
2021/10/20 10:49:26;;;;;;;;;;;;;;;4.76;100.00;99148.16;5004482;28;20292;-80
2021/10/20 10:52:10;;;;;;;;;;;;;;;4.79;100.00;99140.19;5004139;28;19967;-79
2021/10/20 10:54:36;;;;;;;;;;;;;;;4.85;100.00;99121.63;5003013;28;20026;-80
2021/10/20 10:57:12;;;;;;;;;;;;;;;4.86;100.00;99127.72;5005018;28;20024;-80
2021/10/20 10:59:37;;;;;;;;;;;;;;;4.88;100.00;99132.03;5004219;28;19984;-80
2021/10/20 11:02:03;;;;;;;;;;;;;;;4.88;100.00;99137.28;5003858;28;20300;-81
2021/10/20 11:04:34;;;;;;;;;;;;;;;4.91;100.00;99133.69;5004360;28;19932;-79
2021/10/20 11:07:01;;;;;;;;;;;;;;;4.94;100.00;99135.38;5002956;28;19977;-81
2021/10/20 11:09:31;;;;;;;;;;;;;;;4.96;100.00;99125.69;5002942;28;19922;-80
2021/10/20 11:11:57;;;;;;;;;;;;;;;8.75;100.00;99099.94;5006172;28;20021;-79
2021/10/20 11:14:23;;;;;;;;;;;;;;;5.32;100.00;99107.06;5004754;28;20008;-79
2021/10/20 11:16:49;;;;;;;;;;;;;;;4.26;100.00;99105.84;5004866;28;20447;-81
2021/10/20 11:19:19;;;;;;;;;;;;;;;3.77;100.00;99097.56;5004576;28;19926;-80
2021/10/20 11:21:45;;;;;;;;;;;;;;;3.55;100.00;99112.97;5004641;28;20289;-79
2021/10/20 11:24:11;;;;;;;;;;;;;;;3.35;100.00;99089.88;5002840;28;19921;-79
2021/10/20 11:26:37;;;;;;;;;;;;;;;3.18;100.00;99103.38;5004619;28;20431;-79
2021/10/20 11:29:06;;;;;;;;;;;;;;;3.03;100.00;99089.75;5003293;28;19922;-80
2021/10/20 11:31:32;;;;;;;;;;;;;;;2.98;100.00;99091.59;5004353;28;19926;-79
2021/10/20 11:34:13;;;;;;;;;;;;;;;2.88;100.00;99072.63;5008838;28;19921;-80
2021/10/20 11:36:43;;;;;;;;;;;;;;;2.79;100.00;99072.84;5011159;28;19921;-80
2021/10/20 11:39:10;;;;;;;;;;;;;;;2.68;100.00;99067.88;5002893;28;20008;-81
2021/10/20 11:41:35;;;;;;;;;;;;;;;2.72;100.00;99060.81;5002722;28;19947;-80
2021/10/20 11:44:00;;;;;;;;;;;;;;;2.63;100.00;99067.13;5001978;28;20337;-79
2021/10/20 11:46:30;;;;;;;;;;;;;;;2.58;100.00;99058.47;5001672;28;19922;-81
2021/10/20 11:48:57;;;;;;;;;;;;;;;2.53;100.00;99062.97;5011092;28;19992;-81
2021/10/20 11:51:22;;;;;;;;;;;;;;;2.41;100.00;99064.09;5001882;28;20383;-79
2021/10/20 11:53:47;;;;;;;;;;;;;;;2.45;100.00;99063.13;5002071;28;19921;-80
2021/10/20 11:56:13;;;;;;;;;;;;;;;3.23;100.00;99054.38;5002134;28;19926;-80
2021/10/20 11:58:38;;;;;;;;;;;;;;;3.68;100.00;99051.47;4999149;28;19922;-79
2021/10/20 12:01:07;;;;;;;;;;;;;;;3.93;100.00;99035.94;5008549;28;19976;-79
2021/10/20 12:03:33;;;;;;;;;;;;;;;4.08;100.00;99018.91;5007877;28;19934;-80
2021/10/20 12:06:01;;;;;;;;;;;;;;;4.18;100.00;99015.16;5002935;28;19964;-80
2021/10/20 12:08:27;;;;;;;;;;;;;;;4.30;100.00;99026.19;5003665;28;19921;-80
2021/10/20 12:10:52;;;;;;;;;;;;;;;4.34;100.00;99018.19;5001982;28;20276;-79
2021/10/20 12:13:18;;;;;;;;;;;;;;;4.43;100.00;99006.53;5002318;28;19917;-81
2021/10/20 12:15:43;;;;;;;;;;;;;;;4.49;100.00;99006.34;5001667;28;19937;-81
2021/10/20 12:18:09;;;;;;;;;;;;;;;4.53;100.00;99002.75;5001709;28;19917;-80
2021/10/20 12:20:34;;;;;;;;;;;;;;;4.61;100.00;98993.75;5003685;28;19929;-81
2021/10/20 12:22:59;;;;;;;;;;;;;;;4.63;100.00;98998.06;5002891;28;19921;-80
2021/10/20 12:25:25;;;;;;;;;;;;;;;4.70;100.00;99001.34;5001819;28;19925;-80
2021/10/20 12:27:51;;;;;;;;;;;;;;;4.70;100.00;98993.47;5003015;28;19917;-80
2021/10/20 12:30:16;;;;;;;;;;;;;;;4.78;100.00;98996.72;5003375;28;19929;-80
2021/10/20 12:32:42;;;;;;;;;;;;;;;4.76;100.00;98980.16;5001875;28;19921;-79
2021/10/20 12:35:10;;;;;;;;;;;;;;;4.80;100.00;98968.66;5002477;28;19922;-79
2021/10/20 12:37:37;;;;;;;;;;;;;;;4.86;100.00;98973.69;5001589;28;19922;-79
2021/10/20 12:40:08;;;;;;;;;;;;;;;4.88;100.00;98968.41;5001433;28;19921;-81
2021/10/20 12:42:49;;;;;;;;;;;;;;;4.91;100.00;98953.44;5000855;28;19918;-80
2021/10/20 12:45:15;;;;;;;;;;;;;;;4.95;100.00;98966.47;5002614;28;19928;-81
2021/10/20 12:47:41;;;;;;;;;;;;;;;4.98;100.00;98961.06;5002709;28;20285;-81
2021/10/20 12:50:07;;;;;;;;;;;;;;;5.07;100.00;98929.25;5002148;28;20364;-80
2021/10/20 12:52:35;;;;;;;;;;;;;;;5.11;100.00;98923.00;5002795;28;19952;-80
2021/10/20 12:55:00;;;;;;;;;;;;;;;5.13;100.00;98941.34;5000624;28;19921;-80
2021/10/20 12:57:26;;;;;;;;;;;;;;;5.13;100.00;98946.59;5001861;28;19968;-80
2021/10/20 12:59:51;;;;;;;;;;;;;;;5.08;100.00;98936.25;5001887;28;19918;-80
2021/10/20 13:02:16;;;;;;;;;;;;;;;5.06;100.00;98935.44;5002704;28;19921;-80
2021/10/20 13:04:48;;;;;;;;;;;;;;;4.96;100.00;98934.88;5001773;28;20384;-79
2021/10/20 13:07:14;;;;;;;;;;;;;;;4.89;100.00;98939.47;5001805;28;20619;-79
2021/10/20 13:09:39;;;;;;;;;;;;;;;4.86;100.00;98926.44;5000943;28;20017;-80
2021/10/20 13:12:04;;;;;;;;;;;;;;;4.88;100.00;98929.91;5002118;28;19967;-80
2021/10/20 13:14:29;;;;;;;;;;;;;;;4.90;100.00;98928.06;5001557;28;19921;-80
2021/10/20 13:16:55;;;;;;;;;;;;;;;4.97;100.00;98922.63;5009407;28;20012;-81
2021/10/20 13:19:20;;;;;;;;;;;;;;;5.14;100.00;98917.66;5008173;28;19972;-80
2021/10/20 13:21:46;;;;;;;;;;;;;;;5.36;100.00;98915.16;5001988;28;19960;-81
2021/10/20 13:24:11;;;;;;;;;;;;;;;5.61;100.00;98917.72;5000664;28;19921;-79
2021/10/20 13:26:36;;;;;;;;;;;;;;;5.83;100.00;98895.91;5001720;28;20400;-80
2021/10/20 13:29:02;;;;;;;;;;;;;;;5.97;100.00;98909.44;5001907;28;19926;-81
2021/10/20 13:31:27;;;;;;;;;;;;;;;6.07;100.00;98909.09;5002802;28;19940;-80
2021/10/20 13:33:53;;;;;;;;;;;;;;;6.15;100.00;98905.22;5001474;28;19968;-79
2021/10/20 13:36:18;;;;;;;;;;;;;;;6.23;100.00;98911.97;5002054;28;19967;-81
2021/10/20 13:38:44;;;;;;;;;;;;;;;6.27;100.00;98896.00;5001507;28;19917;-81
2021/10/20 13:41:10;;;;;;;;;;;;;;;6.33;100.00;98895.78;5001429;28;20299;-81
2021/10/20 13:43:39;;;;;;;;;;;;;;;6.39;100.00;98888.53;5002085;28;19918;-80
2021/10/20 13:46:04;;;;;;;;;;;;;;;6.45;100.00;98901.47;5003547;28;19929;-81
2021/10/20 13:48:29;;;;;;;;;;;;;;;6.48;100.00;98878.50;5006650;28;19929;-81
2021/10/20 13:50:54;;;;;;;;;;;;;;;6.52;100.00;98876.59;5005775;28;19976;-80
2021/10/20 13:53:20;;;;;;;;;;;;;;;6.58;100.00;98884.25;5005646;28;19921;-80
2021/10/20 13:55:45;;;;;;;;;;;;;;;6.60;100.00;98885.03;5004341;28;20012;-80
2021/10/20 13:58:10;;;;;;;;;;;;;;;6.65;100.00;98893.63;5006018;28;19921;-80
2021/10/20 14:00:36;;;;;;;;;;;;;;;6.68;100.00;98888.19;5007105;28;19917;-81
2021/10/20 14:03:01;;;;;;;;;;;;;;;6.73;100.00;98883.63;5005187;28;20025;-80
2021/10/20 14:05:26;;;;;;;;;;;;;;;6.78;100.00;98898.34;5028806;28;19976;-80
2021/10/20 14:07:52;;;;;;;;;;;;;;;6.81;100.00;98888.56;5005622;28;20373;-80
2021/10/20 14:10:17;;;;;;;;;;;;;;;6.85;100.00;98894.56;5011388;28;19921;-79
2021/10/20 14:12:42;;;;;;;;;;;;;;;6.87;100.00;98885.66;5005554;28;20447;-81
2021/10/20 14:15:08;;;;;;;;;;;;;;;6.90;100.00;98895.22;5006266;28;19921;-80
2021/10/20 14:17:34;;;;;;;;;;;;;;;6.94;100.00;98885.41;5008887;28;19972;-79
2021/10/20 14:20:02;;;;;;;;;;;;;;;6.98;100.00;98877.31;5009259;28;19929;-80
2021/10/20 14:22:27;;;;;;;;;;;;;;;6.99;100.00;98879.03;5013624;28;19917;-80
2021/10/20 14:24:53;;;;;;;;;;;;;;;7.02;100.00;98863.09;5004742;28;20041;-80
2021/10/20 14:27:18;;;;;;;;;;;;;;;5.45;100.00;98848.25;5008482;28;19922;-79
2021/10/20 14:29:43;;;;;;;;;;;;;;;4.58;100.00;98870.53;5010064;28;19933;-80
2021/10/20 14:32:10;;;;;;;;;;;;;;;4.22;100.00;98863.81;5005939;28;20380;-79
2021/10/20 14:34:36;;;;;;;;;;;;;;;3.93;100.00;98864.72;5005030;28;20079;-79
2021/10/20 14:37:01;;;;;;;;;;;;;;;3.78;100.00;98864.28;5009217;28;20005;-80
2021/10/20 14:39:27;;;;;;;;;;;;;;;3.66;100.00;98869.88;5009103;28;19921;-80
2021/10/20 14:41:53;;;;;;;;;;;;;;;3.43;100.00;98868.78;5005344;28;20315;-80
2021/10/20 14:44:19;;;;;;;;;;;;;;;3.32;100.00;98868.25;5009284;28;19925;-79
2021/10/20 14:46:45;;;;;;;;;;;;;;;3.24;100.00;98873.69;5005786;28;20783;-79
2021/10/20 14:49:11;;;;;;;;;;;;;;;3.28;100.00;98863.97;5015077;28;20512;-81
2021/10/20 14:51:38;;;;;;;;;;;;;;;3.15;100.00;98858.22;5014991;28;20379;-80
2021/10/20 14:54:03;;;;;;;;;;;;;;;3.18;100.00;98847.66;5009700;28;20036;-80
2021/10/20 14:56:29;;;;;;;;;;;;;;;3.11;100.00;98846.09;5013250;28;20016;-80
2021/10/20 14:58:54;;;;;;;;;;;;;;;3.04;100.00;98845.41;5010730;28;19979;-81
2021/10/20 15:01:19;;;;;;;;;;;;;;;3.01;100.00;98842.03;5006217;28;20296;-79
2021/10/20 15:03:45;;;;;;;;;;;;;;;2.93;100.00;98847.47;5009488;28;19929;-79
2021/10/20 15:06:16;;;;;;;;;;;;;;;2.86;100.00;98845.94;5010970;28;19928;-80
2021/10/20 15:08:42;;;;;;;;;;;;;;;2.79;100.00;98839.13;5013491;28;20316;-80
2021/10/20 15:11:08;;;;;;;;;;;;;;;2.73;100.00;98850.63;5014044;28;20008;-81
2021/10/20 15:13:37;;;;;;;;;;;;;;;2.81;100.00;98834.69;5021199;28;20355;-79
2021/10/20 15:16:02;;;;;;;;;;;;;;;2.72;100.00;98835.81;5004598;28;19969;-79
2021/10/20 15:18:42;;;;;;;;;;;;;;;2.73;100.00;98840.16;5006994;28;19925;-81
2021/10/20 15:21:07;;;;;;;;;;;;;;;2.64;100.00;98824.69;5013658;28;19921;-80
2021/10/20 15:23:33;;;;;;;;;;;;;;;2.61;100.00;98825.63;5014303;28;20408;-81
2021/10/20 15:25:58;;;;;;;;;;;;;;;2.61;100.00;98815.16;5013099;28;19928;-80
2021/10/20 15:28:23;;;;;;;;;;;;;;;2.51;100.00;98813.69;5009980;28;19921;-79
2021/10/20 15:30:49;;;;;;;;;;;;;;;2.55;100.00;98804.84;5007547;28;20364;-81
2021/10/20 15:33:14;;;;;;;;;;;;;;;2.47;100.00;98798.97;5003853;28;19921;-81
2021/10/20 15:35:44;;;;;;;;;;;;;;;2.43;100.00;98805.19;5011515;28;20288;-80
2021/10/20 15:38:09;;;;;;;;;;;;;;;2.32;100.00;98803.69;5011997;28;19933;-80
2021/10/20 15:40:35;;;;;;;;;;;;;;;2.36;100.00;98789.66;5012791;28;19917;-80
2021/10/20 15:43:00;;;;;;;;;;;;;;;2.57;100.00;98779.53;5004755;28;19926;-80
2021/10/20 15:45:25;;;;;;;;;;;;;;;2.95;100.00;98782.84;5013838;28;19917;-80
2021/10/20 15:47:50;;;;;;;;;;;;;;;3.14;100.00;98777.09;5013856;28;19921;-80
2021/10/20 15:50:16;;;;;;;;;;;;;;;3.27;100.00;98775.84;5010481;28;19918;-79
2021/10/20 15:52:41;;;;;;;;;;;;;;;3.36;100.00;98777.34;5003716;28;19928;-81
2021/10/20 15:55:06;;;;;;;;;;;;;;;3.43;100.00;98777.13;5008984;28;20324;-80
2021/10/20 15:57:32;;;;;;;;;;;;;;;3.47;100.00;98777.03;5010490;28;19917;-80
2021/10/20 15:59:57;;;;;;;;;;;;;;;3.55;100.00;98777.66;5010585;28;19918;-79
2021/10/20 16:02:22;;;;;;;;;;;;;;;3.56;100.00;98755.81;5003789;28;19918;-81
2021/10/20 16:04:47;;;;;;;;;;;;;;;3.59;100.00;98753.94;5010207;28;19918;-80
2021/10/20 16:07:13;;;;;;;;;;;;;;;3.64;100.00;98748.56;5004017;28;20361;-80
2021/10/20 16:09:38;;;;;;;;;;;;;;;3.65;100.00;98739.78;5008919;28;20072;-81
2021/10/20 16:12:04;;;;;;;;;;;;;;;3.70;100.00;98744.88;5003287;28;19925;-80
2021/10/20 16:14:30;;;;;;;;;;;;;;;3.69;100.00;98749.28;5003950;28;19921;-81
2021/10/20 16:16:55;;;;;;;;;;;;;;;3.72;100.00;98736.06;5003608;28;19921;-80
2021/10/20 16:19:21;;;;;;;;;;;;;;;3.71;100.00;98726.50;5003174;28;19960;-80
2021/10/20 16:21:46;;;;;;;;;;;;;;;3.75;100.00;98720.25;5003203;28;19918;-80
2021/10/20 16:24:11;;;;;;;;;;;;;;;3.75;100.00;98719.38;5002265;28;20296;-80
2021/10/20 16:26:36;;;;;;;;;;;;;;;3.77;100.00;98733.31;5003208;28;19918;-80
2021/10/20 16:29:02;;;;;;;;;;;;;;;3.76;100.00;98713.25;5002915;28;19928;-81
2021/10/20 16:31:27;;;;;;;;;;;;;;;3.79;100.00;98714.00;5012883;28;19921;-80
2021/10/20 16:33:53;;;;;;;;;;;;;;;3.85;100.00;98701.63;5012899;28;19921;-82
2021/10/20 16:36:18;;;;;;;;;;;;;;;3.82;100.00;98698.19;5012729;28;19917;-80
2021/10/20 16:38:43;;;;;;;;;;;;;;;3.82;100.00;98710.44;5012384;28;19937;-81
2021/10/20 16:41:09;;;;;;;;;;;;;;;3.85;100.00;98701.63;5011647;28;19917;-81
2021/10/20 16:43:35;;;;;;;;;;;;;;;3.85;100.00;98712.09;5012491;28;19922;-80
2021/10/20 16:46:00;;;;;;;;;;;;;;;3.84;100.00;98720.88;5012292;28;19917;-81
2021/10/20 16:48:26;;;;;;;;;;;;;;;3.87;100.00;98710.28;5012487;28;19921;-81
2021/10/20 16:50:51;;;;;;;;;;;;;;;3.88;100.00;98697.13;5012542;28;19917;-79
2021/10/20 16:53:16;;;;;;;;;;;;;;;3.88;100.00;98709.34;5012510;28;19957;-79
2021/10/20 16:55:41;;;;;;;;;;;;;;;3.91;100.00;98711.88;5010884;28;19922;-81
2021/10/20 16:58:07;;;;;;;;;;;;;;;3.93;100.00;98704.84;5012412;28;19988;-80
2021/10/20 17:00:32;;;;;;;;;;;;;;;3.93;100.00;98716.19;5012613;28;19914;-80
2021/10/20 17:02:58;;;;;;;;;;;;;;;3.93;100.00;98712.72;5012346;28;19921;-79
2021/10/20 17:05:23;;;;;;;;;;;;;;;3.94;100.00;98717.03;5011413;28;19913;-80
2021/10/20 17:07:49;;;;;;;;;;;;;;;3.94;100.00;98723.16;5007801;28;19968;-80
2021/10/20 17:10:16;;;;;;;;;;;;;;;3.94;100.00;98719.66;5001061;28;19926;-80
2021/10/20 17:12:45;;;;;;;;;;;;;;;3.95;100.00;98718.75;5002640;28;19922;-81
2021/10/20 17:15:11;;;;;;;;;;;;;;;3.96;100.00;98705.59;5002223;28;19922;-80
2021/10/20 17:17:36;;;;;;;;;;;;;;;3.99;100.00;98725.63;5002417;28;19968;-79
2021/10/20 17:20:04;;;;;;;;;;;;;;;3.98;100.00;98709.00;5001829;28;19921;-79
2021/10/20 17:22:30;;;;;;;;;;;;;;;3.99;100.00;98688.91;5002586;28;20426;-79
2021/10/20 17:24:57;;;;;;;;;;;;;;;4.03;100.00;98700.16;5010183;28;19917;-80
2021/10/20 17:27:22;;;;;;;;;;;;;;;4.03;100.00;98705.41;5012355;28;19917;-80
2021/10/20 17:29:47;;;;;;;;;;;;;;;4.02;100.00;98680.06;5012129;28;19979;-80
2021/10/20 17:32:13;;;;;;;;;;;;;;;4.06;100.00;98668.59;5011820;28;19918;-80
2021/10/20 17:34:38;;;;;;;;;;;;;;;4.04;100.00;98659.91;5011874;28;19921;-80
2021/10/20 17:37:05;;;;;;;;;;;;;;;4.03;100.00;98659.06;5011953;28;19918;-79
2021/10/20 17:39:30;;;;;;;;;;;;;;;4.03;100.00;98651.19;5010832;28;19963;-81
2021/10/20 17:41:56;;;;;;;;;;;;;;;4.04;100.00;98652.91;5009420;28;19917;-79
2021/10/20 17:44:21;;;;;;;;;;;;;;;4.05;100.00;98646.75;5002253;28;20308;-79
2021/10/20 17:46:47;;;;;;;;;;;;;;;4.06;100.00;98656.31;5001971;28;19925;-81
2021/10/20 17:49:12;;;;;;;;;;;;;;;4.08;100.00;98641.41;5001823;28;19924;-81
2021/10/20 17:51:37;;;;;;;;;;;;;;;4.06;100.00;98651.09;5001894;28;19918;-82
2021/10/20 17:54:03;;;;;;;;;;;;;;;4.08;100.00;98648.41;5000873;28;19925;-81
2021/10/20 17:56:28;;;;;;;;;;;;;;;4.07;100.00;98644.94;5001670;28;19957;-81
2021/10/20 17:58:54;;;;;;;;;;;;;;;4.08;100.00;98645.78;5001977;28;19922;-79
2021/10/20 18:01:19;;;;;;;;;;;;;;;4.09;100.00;98645.75;5002427;28;20266;-80
2021/10/20 18:03:45;;;;;;;;;;;;;;;4.10;100.00;98650.09;5002142;28;19918;-80
2021/10/20 18:06:10;;;;;;;;;;;;;;;4.09;100.00;98645.75;5001645;28;19922;-80
2021/10/20 18:08:36;;;;;;;;;;;;;;;4.12;100.00;98650.03;5004155;28;20281;-80
2021/10/20 18:11:01;;;;;;;;;;;;;;;4.11;100.00;98643.06;5000237;28;20361;-81
2021/10/20 18:13:28;;;;;;;;;;;;;;;4.10;100.00;98644.84;5002318;28;19918;-80
2021/10/20 18:15:53;;;;;;;;;;;;;;;4.12;100.00;98642.16;5001984;28;19953;-81
2021/10/20 18:18:18;;;;;;;;;;;;;;;4.12;100.00;98636.94;5010558;28;20503;-80
2021/10/20 18:20:44;;;;;;;;;;;;;;;4.10;100.00;98623.88;5010205;28;19953;-81
2021/10/20 18:23:09;;;;;;;;;;;;;;;4.12;100.00;98626.44;5010724;28;19945;-80
2021/10/20 18:25:34;;;;;;;;;;;;;;;4.12;100.00;98622.03;5010154;28;19933;-81
2021/10/20 18:28:00;;;;;;;;;;;;;;;4.14;100.00;98614.13;5011479;28;20288;-80
2021/10/20 18:30:26;;;;;;;;;;;;;;;4.16;100.00;98614.91;5011423;28;19966;-80
2021/10/20 18:32:53;;;;;;;;;;;;;;;4.17;100.00;98609.63;5012867;28;19922;-80
2021/10/20 18:35:19;;;;;;;;;;;;;;;4.18;100.00;98595.59;5014718;28;20270;-80
2021/10/20 18:37:46;;;;;;;;;;;;;;;4.18;100.00;98608.72;5015199;28;19924;-80
2021/10/20 18:40:11;;;;;;;;;;;;;;;4.17;100.00;98579.94;5013077;28;20345;-80
2021/10/20 18:42:37;;;;;;;;;;;;;;;4.21;100.00;98585.91;5015012;28;20043;-81
2021/10/20 18:45:04;;;;;;;;;;;;;;;4.19;100.00;98584.19;5013658;28;20296;-80
2021/10/20 18:47:29;;;;;;;;;;;;;;;4.21;100.00;98599.03;5014849;28;19956;-81
2021/10/20 18:49:55;;;;;;;;;;;;;;;4.23;100.00;98591.94;5014811;28;20365;-81
2021/10/20 18:52:20;;;;;;;;;;;;;;;4.25;100.00;98575.25;5014807;28;19920;-81
2021/10/20 18:54:46;;;;;;;;;;;;;;;4.26;100.00;98555.13;5013671;28;19963;-80
2021/10/20 18:57:11;;;;;;;;;;;;;;;4.27;100.00;98554.22;5014553;28;19928;-81
2021/10/20 18:59:36;;;;;;;;;;;;;;;4.26;100.00;98544.63;5013543;28;19921;-80
2021/10/20 19:02:02;;;;;;;;;;;;;;;4.28;100.00;98546.31;5014679;28;20373;-80
2021/10/20 19:04:28;;;;;;;;;;;;;;;4.30;100.00;98541.84;5014119;28;19929;-79
2021/10/20 19:06:53;;;;;;;;;;;;;;;4.28;100.00;98534.97;5013781;28;20548;-80